Time;durP1;ratioP1;P1;durP2;ratioP2;P2;SDS_P1;SDS_P2;PMS_P1;PMS_P2;Temp;Humidity;BMP_temperature;BMP_pressure;BME280_temperature;BME280_humidity;BME280_pressure;Samples;Min_cycle;Max_cycle;Signal;HPM_P1;HPM_P2
2024/04/03 00:03:17;;;;;;;6.57;1.58;;;;;;;17.32;57.00;100489.22;10353946;28;20045;-61
2024/04/03 00:08:17;;;;;;;4.55;1.55;;;;;;;17.33;58.08;100502.34;10354367;28;20597;-62
2024/04/03 00:13:17;;;;;;;4.28;1.42;;;;;;;17.32;57.54;100491.91;10370973;28;20060;-62
2024/04/03 00:18:18;;;;;;;3.73;1.60;;;;;;;17.28;57.97;100486.31;10354373;28;20040;-61
2024/04/03 00:23:18;;;;;;;3.63;1.43;;;;;;;17.33;57.63;100480.09;10371569;28;20276;-62
2024/04/03 00:28:18;;;;;;;3.80;1.77;;;;;;;17.31;57.30;100475.03;10370691;28;20293;-60
2024/04/03 00:33:20;;;;;;;2.80;1.67;;;;;;;17.34;56.99;100482.47;10353876;28;20732;-60
2024/04/03 00:38:20;;;;;;;2.67;1.65;;;;;;;17.33;58.07;100475.53;10365265;28;20277;-60
2024/04/03 00:43:20;;;;;;;3.72;1.65;;;;;;;17.34;57.71;100476.34;10370629;28;20397;-61
2024/04/03 00:48:21;;;;;;;3.13;1.17;;;;;;;17.34;57.60;100468.28;10370146;28;20034;-60
2024/04/03 00:53:25;;;;;;;4.70;1.42;;;;;;;17.32;57.69;100468.59;10352594;28;20113;-60
2024/04/03 00:58:25;;;;;;;3.95;1.48;;;;;;;17.31;57.50;100464.31;10369675;28;20385;-60
2024/04/03 01:03:26;;;;;;;5.50;1.70;;;;;;;17.32;57.38;100457.06;10369799;28;20056;-60
2024/04/03 01:08:26;;;;;;;2.75;1.48;;;;;;;17.33;58.14;100459.44;10369056;28;20723;-60
2024/04/03 01:13:27;;;;;;;1.97;1.30;;;;;;;17.32;57.19;100459.75;10390368;28;20496;-60
2024/04/03 01:18:27;;;;;;;2.88;1.40;;;;;;;17.31;57.95;100445.56;10432774;28;20662;-61
2024/04/03 01:23:28;;;;;;;3.53;1.40;;;;;;;17.33;57.31;100443.38;10451286;28;20052;-61
2024/04/03 01:28:28;;;;;;;4.57;1.70;;;;;;;17.32;57.60;100438.31;10450510;28;20413;-60
2024/04/03 01:33:28;;;;;;;4.67;1.87;;;;;;;17.30;57.71;100432.47;10450911;28;20286;-60
2024/04/03 01:38:29;;;;;;;3.20;1.73;;;;;;;17.29;57.02;100426.31;10432568;28;20298;-60
2024/04/03 01:43:29;;;;;;;2.70;0.97;;;;;;;17.31;58.04;100421.44;10432722;28;20291;-61
2024/04/03 01:48:29;;;;;;;3.07;1.30;;;;;;;17.30;57.17;100409.13;10449900;28;20287;-61
2024/04/03 01:53:30;;;;;;;3.35;1.23;;;;;;;17.29;56.90;100415.59;10415939;28;20329;-61
2024/04/03 01:58:30;;;;;;;2.78;1.30;;;;;;;17.32;56.60;100404.28;10431921;28;20032;-61
2024/04/03 02:03:30;;;;;;;2.27;1.10;;;;;;;17.31;57.88;100400.00;10450199;28;20373;-60
2024/04/03 02:08:31;;;;;;;2.97;1.27;;;;;;;17.29;57.27;100396.81;10449641;28;20299;-60
2024/04/03 02:13:31;;;;;;;2.30;1.23;;;;;;;17.28;57.44;100387.16;10449594;28;20313;-61
2024/04/03 02:18:31;;;;;;;2.40;1.25;;;;;;;17.35;56.25;100374.19;10431486;28;20800;-61
2024/04/03 02:23:32;;;;;;;2.60;1.20;;;;;;;17.33;57.46;100365.66;10449755;28;20037;-61
2024/04/03 02:28:32;;;;;;;1.83;1.10;;;;;;;17.31;56.74;100361.69;10455104;28;20313;-61
2024/04/03 02:33:32;;;;;;;3.13;1.10;;;;;;;17.30;57.25;100360.09;10440055;28;20277;-61
2024/04/03 02:38:32;;;;;;;2.67;1.00;;;;;;;17.34;56.79;100363.78;10457526;28;20468;-61
2024/04/03 02:43:33;;;;;;;1.97;1.03;;;;;;;17.32;57.28;100342.63;10457582;28;20279;-61
2024/04/03 02:48:33;;;;;;;2.00;0.90;;;;;;;17.30;56.84;100347.50;10456848;28;20879;-61
2024/04/03 02:53:33;;;;;;;2.27;1.10;;;;;;;17.29;57.83;100339.75;10439326;28;20025;-61
2024/04/03 02:58:35;;;;;;;1.53;0.90;;;;;;;17.32;57.29;100334.59;10456751;28;20981;-61
2024/04/03 03:03:36;;;;;;;2.75;0.90;;;;;;;17.31;56.95;100310.78;10456666;28;20283;-61
2024/04/03 03:08:36;;;;;;;2.92;1.02;;;;;;;17.30;56.31;100309.19;10438374;28;20027;-60
2024/04/03 03:13:36;;;;;;;2.17;0.88;;;;;;;17.32;57.56;100305.13;10456270;28;20044;-61
2024/04/03 03:18:37;;;;;;;2.40;1.23;;;;;;;17.31;57.39;100292.03;10438076;28;20036;-61
2024/04/03 03:23:37;;;;;;;3.27;1.37;;;;;;;17.29;58.14;100288.84;10437937;28;20028;-61
2024/04/03 03:28:38;;;;;;;2.35;0.90;;;;;;;17.29;57.42;100286.97;10437607;28;20955;-61
2024/04/03 03:33:38;;;;;;;2.72;1.00;;;;;;;17.33;56.30;100279.13;10454467;28;20017;-62
2024/04/03 03:38:38;;;;;;;1.30;0.80;;;;;;;17.30;56.79;100277.84;10436184;28;20025;-61
2024/04/03 03:43:39;;;;;;;2.07;0.90;;;;;;;17.39;57.76;100269.88;10436583;28;20063;-61
2024/04/03 03:53:58;;;;;;;3.87;1.17;;;;;;;17.47;57.45;100269.97;10437910;28;20430;-61
2024/04/03 03:58:58;;;;;;;3.13;0.80;;;;;;;17.61;56.65;100261.13;10435390;28;20017;-59
2024/04/03 04:03:58;;;;;;;1.83;0.90;;;;;;;17.59;57.05;100250.72;10453782;28;20366;-59
2024/04/03 04:08:59;;;;;;;3.60;1.20;;;;;;;17.52;57.64;100243.09;10435137;28;20299;-61
2024/04/03 04:13:59;;;;;;;5.67;1.33;;;;;;;17.49;57.76;100237.50;10452999;28;20302;-59
2024/04/03 04:18:59;;;;;;;2.70;0.67;;;;;;;17.42;57.04;100239.81;10453156;28;20286;-60
2024/04/03 04:24:00;;;;;;;2.03;1.23;;;;;;;17.35;57.72;100240.19;10435710;28;20352;-61
2024/04/03 04:29:00;;;;;;;2.87;0.73;;;;;;;17.29;57.77;100237.94;10435228;28;20295;-60
2024/04/03 04:34:00;;;;;;;3.60;0.90;;;;;;;17.29;57.96;100229.91;10435363;28;20378;-61
2024/04/03 04:39:01;;;;;;;3.53;1.00;;;;;;;17.29;56.94;100232.59;10434273;28;20270;-60
2024/04/03 04:44:01;;;;;;;2.67;1.00;;;;;;;17.26;58.14;100228.59;10451608;28;20291;-60
2024/04/03 04:49:02;;;;;;;1.58;0.80;;;;;;;17.29;57.09;100219.97;10451252;28;20287;-60
2024/04/03 04:54:02;;;;;;;0.97;0.57;;;;;;;17.34;57.47;100227.09;10417969;28;20032;-61
2024/04/03 04:59:02;;;;;;;1.70;0.75;;;;;;;17.33;57.51;100217.47;10451597;28;20302;-61
2024/04/03 05:04:03;;;;;;;2.45;0.70;;;;;;;17.33;57.70;100228.19;10451949;28;20037;-61
2024/04/03 05:09:05;;;;;;;2.33;0.93;;;;;;;17.36;56.35;100217.66;10451471;28;20120;-61
2024/04/03 05:14:05;;;;;;;2.53;0.77;;;;;;;17.37;56.94;100207.75;10414868;28;20068;-63
2024/04/03 05:19:05;;;;;;;3.53;0.70;;;;;;;17.36;57.01;100201.59;10447438;28;20032;-61
2024/04/03 05:24:06;;;;;;;8.30;1.70;;;;;;;17.56;57.77;100200.38;10451178;28;20553;-61
2024/04/03 05:29:07;;;;;;;6.35;1.55;;;;;;;17.49;58.00;100197.31;10450552;28;20029;-59
2024/04/03 05:34:07;;;;;;;6.40;1.70;;;;;;;17.55;58.75;100188.06;10450937;28;20024;-60
2024/04/03 05:39:08;;;;;;;6.07;1.30;;;;;;;17.52;57.61;100180.63;10450389;28;20279;-61
2024/04/03 05:44:08;;;;;;;6.60;1.60;;;;;;;17.58;58.71;100182.09;10451030;28;20851;-61
2024/04/03 05:49:08;;;;;;;5.93;1.73;;;;;;;17.58;58.53;100174.06;10450349;28;20124;-59
2024/04/03 05:54:09;;;;;;;9.37;2.00;;;;;;;17.46;58.68;100177.25;10431270;28;20279;-62
2024/04/03 05:59:09;;;;;;;14.43;2.40;;;;;;;17.37;57.74;100181.75;10449278;28;20723;-63
2024/04/03 06:04:09;;;;;;;13.07;2.33;;;;;;;17.44;58.77;100171.41;10449971;28;20271;-61
2024/04/03 06:09:10;;;;;;;7.57;1.77;;;;;;;17.37;58.76;100176.38;10449661;28;21113;-63
2024/04/03 06:14:10;;;;;;;10.15;1.60;;;;;;;17.29;58.14;100171.75;10449840;28;20056;-62
2024/04/03 06:19:12;;;;;;;11.10;2.00;;;;;;;17.22;58.55;100168.66;10449508;28;20029;-61
2024/04/03 06:24:12;;;;;;;8.85;1.75;;;;;;;17.21;58.35;100156.38;10449981;28;20327;-62
2024/04/03 06:29:13;;;;;;;4.33;1.40;;;;;;;17.17;58.73;100164.22;10449528;28;20021;-62
2024/04/03 06:34:14;;;;;;;6.28;1.30;;;;;;;17.13;58.20;100160.53;10449620;28;20283;-62
2024/04/03 06:39:14;;;;;;;4.65;1.00;;;;;;;17.10;58.73;100158.47;10449397;28;20029;-62
2024/04/03 06:44:14;;;;;;;5.33;1.87;;;;;;;17.12;57.53;100161.63;10431991;28;20025;-62
2024/04/03 06:49:15;;;;;;;3.27;1.30;;;;;;;17.13;59.25;100157.84;10449099;28;20694;-62
2024/04/03 06:54:18;;;;;;;5.00;1.30;;;;;;;17.15;58.44;100157.53;10431345;28;20275;-62
2024/04/03 06:59:18;;;;;;;7.40;1.60;;;;;;;17.16;58.33;100146.53;10430556;28;20272;-61
2024/04/03 07:04:18;;;;;;;6.32;1.83;;;;;;;17.22;58.50;100152.59;10448611;28;20029;-61
2024/04/03 07:09:20;;;;;;;5.68;1.98;;;;;;;17.22;58.29;100149.91;10441811;28;20112;-62
2024/04/03 07:14:21;;;;;;;4.20;1.20;;;;;;;17.20;59.32;100150.22;10450945;28;20041;-63
2024/04/03 07:19:22;;;;;;;5.55;1.30;;;;;;;17.23;59.31;100141.56;10454855;28;20090;-61
2024/04/03 07:24:22;;;;;;;8.87;2.07;;;;;;;17.24;58.77;100137.00;10421031;28;20570;-61
2024/04/03 07:29:24;;;;;;;4.50;1.85;;;;;;;17.17;58.06;100145.47;10436514;28;20329;-61
2024/04/03 07:34:25;;;;;;;6.22;1.10;;;;;;;17.16;59.07;100133.13;10452219;28;20044;-61
2024/04/03 07:39:26;;;;;;;6.60;1.90;;;;;;;17.14;58.07;100140.69;10452176;28;20028;-61
2024/04/03 07:44:26;;;;;;;4.60;1.42;;;;;;;17.11;58.61;100130.56;10454727;28;20279;-61
2024/04/03 07:49:27;;;;;;;7.57;1.90;;;;;;;17.12;58.99;100126.00;10454330;28;20048;-61
2024/04/03 07:54:27;;;;;;;4.80;1.02;;;;;;;17.15;58.83;100131.56;10454601;28;20044;-61
2024/04/03 07:59:28;;;;;;;2.10;0.90;;;;;;;17.16;58.41;100137.69;10454563;28;20033;-61
2024/04/03 08:04:29;;;;;;;3.28;0.90;;;;;;;17.20;57.74;100130.66;10436835;28;20305;-61
2024/04/03 08:09:32;;;;;;;3.08;0.82;;;;;;;17.23;58.49;100135.41;10435976;28;20108;-61
2024/04/03 08:14:33;;;;;;;5.35;0.80;;;;;;;17.18;58.88;100128.28;10445701;28;20436;-62
2024/04/03 08:19:33;;;;;;;4.28;1.48;;;;;;;17.17;58.53;100126.72;10453265;28;20004;-61
2024/04/03 08:24:34;;;;;;;5.25;1.50;;;;;;;17.19;58.17;100127.19;10453711;28;20029;-61
2024/04/03 08:29:37;;;;;;;2.88;1.17;;;;;;;17.19;58.56;100132.56;10453562;28;20025;-61
2024/04/03 08:34:37;;;;;;;5.80;1.48;;;;;;;17.18;57.63;100130.19;10436351;28;20438;-62
2024/04/03 08:39:38;;;;;;;4.63;1.05;;;;;;;17.27;58.68;100128.34;10435575;28;20048;-62
2024/04/03 08:44:39;;;;;;;3.35;0.90;;;;;;;17.28;57.50;100131.81;10453219;28;20081;-62
2024/04/03 08:49:40;;;;;;;6.82;1.42;;;;;;;17.26;58.42;100134.81;10434193;28;20029;-62
2024/04/03 08:54:42;;;;;;;5.32;1.23;;;;;;;17.24;58.09;100134.31;10433624;28;20025;-62
2024/04/03 08:59:42;;;;;;;4.03;1.17;;;;;;;17.21;57.47;100129.56;10433990;28;20032;-62
2024/04/03 09:04:42;;;;;;;3.87;0.70;;;;;;;17.22;57.78;100131.16;10433292;28;20021;-62
2024/04/03 09:09:43;;;;;;;2.43;1.07;;;;;;;17.25;57.28;100130.56;10450982;28;20733;-62
2024/04/03 09:14:45;;;;;;;3.78;1.05;;;;;;;17.23;58.54;100122.03;10450799;28;20291;-62
2024/04/03 09:19:49;;;;;;;4.10;0.90;;;;;;;17.22;58.63;100120.44;10450900;28;20020;-62
2024/04/03 09:24:52;;;;;;;4.57;0.93;;;;;;;17.20;57.75;100120.75;10450015;28;20052;-62
2024/04/03 09:29:56;;;;;;;4.72;1.30;;;;;;;17.25;57.08;100122.50;10450161;28;20087;-62
2024/04/03 09:34:56;;;;;;;3.50;1.00;;;;;;;17.23;58.45;100122.03;10431994;28;20029;-62
2024/04/03 09:39:57;;;;;;;1.77;0.80;;;;;;;17.20;58.24;100125.31;10432528;28;20025;-63
2024/04/03 09:44:58;;;;;;;1.67;0.63;;;;;;;17.21;57.92;100119.66;10449772;28;20021;-62
2024/04/03 09:49:59;;;;;;;4.10;1.20;;;;;;;17.24;57.43;100119.03;10415530;28;20763;-62
2024/04/03 09:55:00;;;;;;;1.75;0.93;;;;;;;17.26;57.81;100118.75;10431578;28;20151;-62
2024/04/03 10:00:01;;;;;;;2.35;0.82;;;;;;;17.24;57.95;100118.25;10431432;28;20021;-62
2024/04/03 10:05:01;;;;;;;2.00;0.90;;;;;;;17.23;58.37;100114.00;10449287;28;20071;-62
2024/04/03 10:10:02;;;;;;;1.20;0.50;;;;;;;17.22;56.99;100121.22;10449171;28;20291;-62
2024/04/03 10:15:03;;;;;;;1.98;0.70;;;;;;;17.25;58.21;100114.47;10448599;28;20700;-61
2024/04/03 10:20:04;;;;;;;1.92;0.57;;;;;;;17.23;57.42;100106.75;10431049;28;20052;-62
2024/04/03 10:25:06;;;;;;;1.92;0.80;;;;;;;17.24;56.85;100115.56;10448358;28;20587;-62
2024/04/03 10:30:09;;;;;;;3.42;0.90;;;;;;;17.21;57.18;100116.97;10448887;28;20037;-62
2024/04/03 10:35:09;;;;;;;4.75;1.13;;;;;;;17.20;57.62;100111.91;10448376;28;20074;-62
2024/04/03 10:40:10;;;;;;;2.20;1.08;;;;;;;17.19;57.48;100110.34;10448484;28;20063;-63
2024/04/03 10:45:11;;;;;;;2.28;0.80;;;;;;;17.23;58.22;100108.63;10429704;28;20037;-61
2024/04/03 10:50:11;;;;;;;2.10;1.00;;;;;;;17.28;58.46;100102.34;10450594;28;20465;-62
2024/04/03 10:55:14;;;;;;;2.13;0.80;;;;;;;17.28;58.88;100111.19;10438002;28;20271;-62
2024/04/03 11:00:15;;;;;;;1.63;0.80;;;;;;;17.25;59.98;100111.78;10456612;28;20271;-61
2024/04/03 11:05:15;;;;;;;2.03;0.65;;;;;;;17.29;59.98;100112.00;10437830;28;20032;-62
2024/04/03 11:10:16;;;;;;;3.10;1.30;;;;;;;17.29;59.22;100122.72;10455961;28;20039;-62
2024/04/03 11:15:22;;;;;;;1.53;0.67;;;;;;;17.29;58.37;100115.47;10454434;28;20543;-64
2024/04/03 11:20:25;;;;;;;2.15;0.88;;;;;;;17.20;58.34;100104.66;10455027;28;20655;-62
2024/04/03 11:25:26;;;;;;;1.63;1.13;;;;;;;17.28;59.19;100102.34;10454826;28;20036;-62
2024/04/03 11:30:27;;;;;;;2.75;0.90;;;;;;;17.30;59.17;100110.91;10436882;28;20032;-62
2024/04/03 11:35:28;;;;;;;2.90;0.90;;;;;;;17.24;58.56;100107.53;10436428;28;20031;-63
2024/04/03 11:40:29;;;;;;;9.40;2.97;;;;;;;17.34;58.56;100109.19;10455440;28;20035;-63
2024/04/03 11:45:29;;;;;;;4.00;1.40;;;;;;;17.35;58.16;100116.94;10436233;28;20047;-64
2024/04/03 11:50:29;;;;;;;4.63;1.60;;;;;;;17.43;58.79;100126.16;10453219;28;20025;-62
2024/04/03 11:55:29;;;;;;;4.78;2.03;;;;;;;17.41;57.80;100120.31;10453143;28;20382;-61
2024/04/03 12:00:30;;;;;;;3.50;1.70;;;;;;;17.45;58.12;100113.25;10453396;28;20153;-62
2024/04/03 12:05:30;;;;;;;4.50;1.40;;;;;;;17.44;58.22;100120.50;10453425;28;20283;-62
2024/04/03 12:10:31;;;;;;;4.27;0.93;;;;;;;17.41;58.56;100114.97;10453497;28;20039;-62
2024/04/03 12:15:31;;;;;;;5.03;1.70;;;;;;;17.41;58.58;100112.28;10434664;28;20318;-59
2024/04/03 12:20:33;;;;;;;7.22;1.80;;;;;;;17.55;58.35;100110.34;10453102;28;20283;-61
2024/04/03 12:25:34;;;;;;;15.27;2.17;;;;;;;17.59;59.01;100114.00;10434713;28;20021;-60
2024/04/03 12:30:34;;;;;;;8.50;1.85;;;;;;;17.57;58.34;100120.75;10434819;28;20032;-59
2024/04/03 12:35:34;;;;;;;11.18;1.55;;;;;;;17.41;58.66;100106.91;10431675;28;20095;-59
2024/04/03 12:40:37;;;;;;;5.87;1.70;;;;;;;17.37;60.00;100111.28;10446160;28;20028;-60
2024/04/03 12:45:38;;;;;;;4.50;1.67;;;;;;;17.34;59.30;100110.00;10448102;28;20291;-60
2024/04/03 12:50:38;;;;;;;7.15;1.48;;;;;;;17.35;59.75;100105.44;10442742;28;20082;-59
2024/04/03 12:55:38;;;;;;;6.57;1.35;;;;;;;17.30;60.03;100106.34;10447675;28;20059;-60
2024/04/03 13:00:39;;;;;;;10.07;1.73;;;;;;;17.27;60.13;100111.50;10446463;28;20043;-59
2024/04/03 13:05:39;;;;;;;11.07;2.30;;;;;;;17.19;61.03;100110.34;10434060;28;20272;-59
2024/04/03 13:10:43;;;;;;;6.90;1.90;;;;;;;17.21;59.45;100110.81;10444013;28;20029;-59
2024/04/03 13:15:43;;;;;;;14.00;2.40;;;;;;;17.19;60.32;100113.00;10449575;28;20677;-61
2024/04/03 13:20:44;;;;;;;16.27;2.72;;;;;;;17.22;60.65;100107.03;10433007;28;20052;-59
2024/04/03 13:25:44;;;;;;;8.35;2.45;;;;;;;17.19;60.14;100103.09;10450134;28;20103;-59
2024/04/03 13:30:53;;;;;;;12.97;2.60;;;;;;;17.18;60.19;100106.06;10450123;28;20040;-59
2024/04/03 13:35:53;;;;;;;7.20;1.60;;;;;;;17.16;60.88;100103.66;10450011;28;20465;-59
2024/04/03 13:40:53;;;;;;;7.33;1.77;;;;;;;17.13;59.64;100106.94;10450542;28;20282;-59
2024/04/03 13:45:54;;;;;;;6.93;1.80;;;;;;;17.28;60.61;100100.47;10449035;28;20275;-60
2024/04/03 13:50:54;;;;;;;13.03;2.37;;;;;;;17.33;60.77;100094.22;10449041;28;20290;-59
2024/04/03 13:56:02;;;;;;;7.67;1.60;;;;;;;17.33;60.61;100089.66;10448351;28;20283;-60
2024/04/03 14:01:03;;;;;;;11.13;2.20;;;;;;;17.36;60.87;100096.28;10448657;28;20658;-59
2024/04/03 14:06:04;;;;;;;6.63;2.08;;;;;;;17.39;60.94;100088.44;10448146;28;20048;-60
2024/04/03 14:11:04;;;;;;;8.30;2.05;;;;;;;17.24;60.22;100091.47;10436971;28;20362;-59
2024/04/03 14:16:05;;;;;;;7.37;1.33;;;;;;;17.16;60.45;100089.47;10448095;28;20040;-59
2024/04/03 14:21:05;;;;;;;5.50;1.75;;;;;;;17.13;61.14;100085.53;10448814;28;20271;-58
2024/04/03 14:26:06;;;;;;;7.70;1.92;;;;;;;17.14;61.07;100081.75;10456298;28;20103;-59
2024/04/03 14:31:09;;;;;;;4.88;1.70;;;;;;;17.21;60.94;100070.63;10456819;28;20021;-59
2024/04/03 14:36:09;;;;;;;7.60;2.50;;;;;;;17.40;60.52;100073.16;10455849;28;20542;-58
2024/04/03 14:41:09;;;;;;;17.57;3.87;;;;;;;17.48;61.08;100062.50;10456373;28;20017;-59
2024/04/03 14:46:11;;;;;;;11.07;2.70;;;;;;;17.57;61.00;100072.50;10454955;28;20275;-61
2024/04/03 14:51:11;;;;;;;15.02;2.83;;;;;;;17.59;61.12;100063.06;10455922;28;20476;-60
2024/04/03 14:56:11;;;;;;;11.85;3.10;;;;;;;17.54;61.46;100063.19;10444434;28;20041;-59
2024/04/03 15:01:12;;;;;;;12.70;2.93;;;;;;;17.64;61.67;100062.94;10453896;28;20017;-61
2024/04/03 15:06:13;;;;;;;22.13;3.47;;;;;;;17.70;63.43;100059.06;10455096;28;20271;-58
2024/04/03 15:11:13;;;;;;;9.57;2.50;;;;;;;17.79;62.65;100067.97;10450505;28;20029;-59
2024/04/03 15:16:13;;;;;;;10.90;2.83;;;;;;;17.74;62.83;100067.28;10454484;28;20766;-58
2024/04/03 15:21:13;;;;;;;12.03;2.53;;;;;;;17.79;62.26;100059.94;10452038;28;20286;-59
2024/04/03 15:26:17;;;;;;;15.70;2.93;;;;;;;17.78;62.19;100046.81;10451257;28;20295;-59
2024/04/03 15:31:18;;;;;;;10.90;3.83;;;;;;;17.66;62.10;100052.72;10454564;28;20334;-61
2024/04/03 15:36:18;;;;;;;10.13;2.38;;;;;;;17.59;61.60;100063.06;10452882;28;20041;-61
2024/04/03 15:41:19;;;;;;;13.15;3.00;;;;;;;17.51;62.35;100080.66;10433911;28;20496;-60
2024/04/03 15:46:19;;;;;;;13.07;3.47;;;;;;;17.48;61.88;100075.09;10438481;28;20492;-60
2024/04/03 15:51:20;;;;;;;10.40;2.50;;;;;;;17.62;65.79;100075.06;10453946;28;20352;-61
2024/04/03 15:56:20;;;;;;;6.40;1.98;;;;;;;17.64;64.18;100076.34;10453385;28;20287;-60
2024/04/03 16:01:21;;;;;;;20.88;3.30;;;;;;;17.62;63.71;100075.84;10453054;28;20025;-61
2024/04/03 16:06:21;;;;;;;12.53;2.63;;;;;;;17.64;63.85;100087.09;10453194;28;20427;-61
2024/04/03 16:11:22;;;;;;;14.40;2.85;;;;;;;17.57;62.81;100091.28;10435046;28;20371;-61
2024/04/03 16:16:22;;;;;;;11.00;3.72;;;;;;;17.50;63.33;100102.41;10437370;28;20404;-61
2024/04/03 16:21:23;;;;;;;7.57;2.30;;;;;;;17.46;63.06;100096.06;10453744;28;20024;-61
2024/04/03 16:26:23;;;;;;;7.78;1.83;;;;;;;17.43;62.97;100113.56;10435988;28;20294;-62
2024/04/03 16:31:23;;;;;;;9.88;2.45;;;;;;;17.39;63.38;100115.22;10453563;28;20029;-61
2024/04/03 16:36:24;;;;;;;7.00;2.33;;;;;;;17.38;63.23;100104.81;10453490;28;20407;-62
2024/04/03 16:41:26;;;;;;;7.40;1.97;;;;;;;17.36;62.86;100110.47;10453131;28;20043;-62
2024/04/03 16:46:27;;;;;;;7.10;2.00;;;;;;;17.41;62.23;100123.78;10452282;28;20292;-62
2024/04/03 16:51:28;;;;;;;7.20;2.05;;;;;;;17.44;62.58;100119.69;10451953;28;20460;-62
2024/04/03 16:56:28;;;;;;;12.27;1.47;;;;;;;17.36;62.48;100125.78;10432719;28;20117;-62
2024/04/03 17:01:28;;;;;;;9.60;2.00;;;;;;;17.32;62.21;100136.31;10417648;28;20284;-61
2024/04/03 17:06:30;;;;;;;10.97;1.57;;;;;;;17.30;62.14;100143.06;10450113;28;20025;-62
2024/04/03 17:11:31;;;;;;;5.40;1.58;;;;;;;17.27;62.33;100149.78;10436068;28;20287;-61
2024/04/03 17:16:31;;;;;;;7.70;1.85;;;;;;;17.22;63.00;100156.06;10433520;28;20606;-61
2024/04/03 17:21:31;;;;;;;6.00;1.60;;;;;;;17.23;61.75;100175.59;10450685;28;20040;-61
2024/04/03 17:26:32;;;;;;;7.17;2.17;;;;;;;17.32;60.97;100179.19;10450218;28;20028;-60
2024/04/03 17:31:32;;;;;;;11.73;2.23;;;;;;;17.41;60.99;100195.34;10450683;28;20291;-62
2024/04/03 17:36:32;;;;;;;11.98;2.05;;;;;;;17.47;61.70;100194.13;10451148;28;20356;-62
2024/04/03 17:41:33;;;;;;;7.73;2.10;;;;;;;17.43;60.98;100193.94;10444452;28;20037;-62
2024/04/03 17:46:33;;;;;;;14.00;1.80;;;;;;;17.39;61.02;100203.66;10465416;28;20745;-62
2024/04/03 17:51:33;;;;;;;8.53;2.27;;;;;;;17.41;60.53;100206.88;10433384;28;20295;-63
2024/04/03 17:56:34;;;;;;;4.72;1.17;;;;;;;17.39;61.34;100218.94;10455141;28;20333;-63
2024/04/03 18:01:34;;;;;;;6.37;1.33;;;;;;;17.31;60.53;100228.50;10449417;28;20029;-64
2024/04/03 18:06:34;;;;;;;5.07;1.30;;;;;;;17.38;61.66;100236.13;10431927;28;20739;-62
2024/04/03 18:11:35;;;;;;;8.07;1.60;;;;;;;17.34;61.34;100249.34;10428758;28;20283;-62
2024/04/03 18:16:35;;;;;;;4.25;1.30;;;;;;;17.40;61.16;100253.50;10431490;28;20295;-63
2024/04/03 18:21:35;;;;;;;8.98;1.70;;;;;;;17.45;61.59;100260.66;10434739;28;20374;-61
2024/04/03 18:26:36;;;;;;;3.80;1.30;;;;;;;17.38;60.21;100269.09;10432015;28;20033;-62
2024/04/03 18:31:37;;;;;;;2.88;1.23;;;;;;;17.32;61.22;100269.50;10431378;28;20291;-62
2024/04/03 18:36:37;;;;;;;5.55;1.27;;;;;;;17.29;60.62;100294.22;10449855;28;20020;-61
2024/04/03 18:41:37;;;;;;;4.55;1.33;;;;;;;17.30;60.39;100304.63;10449018;28;20053;-61
2024/04/03 18:46:38;;;;;;;7.43;1.30;;;;;;;17.32;59.97;100296.28;10447312;28;20025;-61
2024/04/03 18:51:38;;;;;;;9.03;2.07;;;;;;;17.31;60.54;100300.06;10447446;28;20681;-62
2024/04/03 18:56:39;;;;;;;6.85;1.58;;;;;;;17.33;60.12;100304.03;10448039;28;20352;-61
2024/04/03 19:01:41;;;;;;;3.93;1.17;;;;;;;17.34;60.25;100305.63;10445532;28;20040;-61
2024/04/03 19:06:43;;;;;;;4.57;1.15;;;;;;;17.33;60.05;100309.38;10433059;28;20694;-60
2024/04/03 19:11:43;;;;;;;5.18;1.20;;;;;;;17.34;59.18;100313.66;10433114;28;20330;-60
2024/04/03 19:16:45;;;;;;;4.72;1.00;;;;;;;17.33;60.51;100313.94;10451845;28;20436;-59
2024/04/03 19:21:46;;;;;;;3.15;1.15;;;;;;;17.34;59.90;100315.53;10452832;28;20035;-59
2024/04/03 19:26:46;;;;;;;6.65;1.92;;;;;;;17.33;59.11;100317.44;10453601;28;20045;-60
2024/04/03 19:31:47;;;;;;;3.63;0.73;;;;;;;17.32;60.33;100328.44;10455249;28;20128;-60
2024/04/03 19:36:48;;;;;;;2.80;0.95;;;;;;;17.30;60.36;100330.63;10438298;28;20111;-59
2024/04/03 19:41:48;;;;;;;4.60;1.33;;;;;;;17.30;58.98;100336.00;10455441;28;20460;-60
2024/04/03 19:46:48;;;;;;;2.33;1.07;;;;;;;17.30;60.31;100338.66;10437590;28;20283;-59
2024/04/03 19:51:49;;;;;;;3.70;1.37;;;;;;;17.31;59.48;100340.25;10455117;28;20374;-59
2024/04/03 19:56:50;;;;;;;3.08;0.95;;;;;;;17.31;59.36;100349.09;10455323;28;20939;-59
2024/04/03 20:01:50;;;;;;;5.00;0.85;;;;;;;17.30;60.17;100357.44;10455103;28;20033;-59
2024/04/03 20:06:51;;;;;;;3.23;1.27;;;;;;;17.30;59.61;100362.78;10454845;28;20032;-59
2024/04/03 20:11:51;;;;;;;4.80;1.33;;;;;;;17.30;58.60;100362.78;10454009;28;20291;-60
2024/04/03 20:16:51;;;;;;;5.27;1.13;;;;;;;17.27;59.21;100368.72;10454601;28;20084;-59
2024/04/03 20:21:52;;;;;;;4.50;1.57;;;;;;;17.25;59.03;100367.13;10452903;28;20329;-59
2024/04/03 20:26:52;;;;;;;3.20;0.80;;;;;;;17.31;59.03;100367.84;10453576;28;20025;-59
2024/04/03 20:31:53;;;;;;;1.63;0.83;;;;;;;17.33;59.57;100362.97;10452688;28;20364;-59
2024/04/03 20:36:54;;;;;;;5.40;1.63;;;;;;;17.33;58.46;100375.59;10453596;28;20290;-60
2024/04/03 20:41:54;;;;;;;4.03;1.00;;;;;;;17.32;59.21;100374.78;10452026;28;20106;-60
2024/04/03 20:46:55;;;;;;;4.72;0.90;;;;;;;17.29;58.73;100375.38;10435472;28;20294;-60
2024/04/03 20:51:55;;;;;;;2.30;0.95;;;;;;;17.27;58.90;100388.25;10434676;28;20083;-60
2024/04/03 20:56:56;;;;;;;2.45;0.90;;;;;;;17.25;59.11;100393.13;10451870;28;20027;-60
2024/04/03 21:01:56;;;;;;;1.63;0.60;;;;;;;17.27;58.77;100387.47;10452618;28;20025;-59
2024/04/03 21:06:56;;;;;;;2.80;1.43;;;;;;;17.28;59.13;100387.16;10452459;28;20278;-59
2024/04/03 21:11:57;;;;;;;3.57;0.73;;;;;;;17.25;58.66;100388.56;10451382;28;20366;-60
2024/04/03 21:16:57;;;;;;;3.25;0.68;;;;;;;17.25;58.91;100388.56;10433903;28;20283;-59
2024/04/03 21:21:57;;;;;;;3.83;0.80;;;;;;;17.26;59.11;100389.34;10451130;28;20017;-59
2024/04/03 21:26:58;;;;;;;4.03;0.90;;;;;;;17.25;58.62;100393.13;10451964;28;20039;-60
2024/04/03 21:31:58;;;;;;;2.80;0.60;;;;;;;17.24;59.83;100413.78;10449917;28;20287;-60
2024/04/03 21:36:58;;;;;;;3.47;1.43;;;;;;;17.27;59.32;100409.69;10433263;28;20655;-59
2024/04/03 21:41:59;;;;;;;4.33;1.30;;;;;;;17.29;58.99;100415.59;10449886;28;20299;-60
2024/04/03 21:47:00;;;;;;;4.85;1.35;;;;;;;17.30;58.29;100417.16;10450875;28;20344;-60
2024/04/03 21:52:00;;;;;;;3.53;0.90;;;;;;;17.27;57.93;100416.94;10449915;28;20025;-60
2024/04/03 21:57:01;;;;;;;3.17;1.27;;;;;;;17.32;57.55;100420.34;10450665;28;20047;-60
2024/04/03 22:02:02;;;;;;;1.15;0.60;;;;;;;17.34;58.31;100426.22;10449812;28;20108;-60
2024/04/03 22:07:02;;;;;;;3.10;1.20;;;;;;;17.34;58.62;100431.56;10450325;28;20474;-59
2024/04/03 22:12:03;;;;;;;2.60;0.65;;;;;;;17.30;57.51;100437.81;10449354;28;20021;-59
2024/04/03 22:17:03;;;;;;;2.80;1.00;;;;;;;17.29;57.71;100453.09;10449805;28;20078;-59
2024/04/03 22:22:03;;;;;;;2.87;0.93;;;;;;;17.32;58.57;100454.38;10449989;28;20025;-59
2024/04/03 22:27:04;;;;;;;1.90;0.70;;;;;;;17.33;58.92;100466.69;10448492;28;20287;-59
2024/04/03 22:32:04;;;;;;;2.63;1.08;;;;;;;17.33;57.87;100472.06;10448747;28;20039;-60
2024/04/03 22:37:05;;;;;;;3.13;0.98;;;;;;;17.29;59.06;100471.84;10449737;28;20025;-60
2024/04/03 22:42:05;;;;;;;2.93;0.90;;;;;;;17.29;57.47;100474.53;10449697;28;20096;-60
2024/04/03 22:47:05;;;;;;;3.00;0.70;;;;;;;17.28;58.85;100472.91;10458209;28;20340;-59
2024/04/03 22:52:06;;;;;;;4.07;0.93;;;;;;;17.29;58.50;100460.34;10456952;28;20024;-60
2024/04/03 22:57:06;;;;;;;2.92;0.80;;;;;;;17.27;58.02;100460.63;10456952;28;20275;-60
2024/04/03 23:02:07;;;;;;;2.85;1.02;;;;;;;17.26;59.21;100461.69;10456796;28;20568;-59
2024/04/03 23:07:08;;;;;;;3.40;0.88;;;;;;;17.23;58.95;100455.06;10456302;28;20549;-59